sensor_id;sensor_type;location;lat;lon;timestamp;P1;durP1;ratioP1;P2;durP2;ratioP2
5491;SDS011;2768;53.540;10.224;2023-08-08T00:02:23;3.83;;;2.60;;
5491;SDS011;2768;53.540;10.224;2023-08-08T00:08:18;3.00;;;1.87;;
5491;SDS011;2768;53.540;10.224;2023-08-08T00:14:11;7.83;;;2.70;;
5491;SDS011;2768;53.540;10.224;2023-08-08T00:20:05;7.53;;;2.20;;
5491;SDS011;2768;53.540;10.224;2023-08-08T00:26:01;6.20;;;2.80;;
5491;SDS011;2768;53.540;10.224;2023-08-08T00:31:54;3.20;;;2.37;;
5491;SDS011;2768;53.540;10.224;2023-08-08T00:37:48;5.43;;;2.40;;
5491;SDS011;2768;53.540;10.224;2023-08-08T00:43:44;4.80;;;2.40;;
5491;SDS011;2768;53.540;10.224;2023-08-08T00:49:37;6.23;;;2.83;;
5491;SDS011;2768;53.540;10.224;2023-08-08T00:55:31;5.37;;;2.80;;
5491;SDS011;2768;53.540;10.224;2023-08-08T01:01:28;4.00;;;2.40;;
5491;SDS011;2768;53.540;10.224;2023-08-08T01:07:24;6.37;;;2.37;;
5491;SDS011;2768;53.540;10.224;2023-08-08T01:13:23;6.47;;;2.43;;
5491;SDS011;2768;53.540;10.224;2023-08-08T01:19:21;4.10;;;2.33;;
5491;SDS011;2768;53.540;10.224;2023-08-08T01:25:21;8.00;;;3.07;;
5491;SDS011;2768;53.540;10.224;2023-08-08T01:31:14;4.87;;;2.40;;
5491;SDS011;2768;53.540;10.224;2023-08-08T01:37:09;5.60;;;2.40;;
5491;SDS011;2768;53.540;10.224;2023-08-08T01:43:09;6.93;;;2.47;;
5491;SDS011;2768;53.540;10.224;2023-08-08T01:49:03;3.93;;;2.10;;
5491;SDS011;2768;53.540;10.224;2023-08-08T01:54:57;7.27;;;2.20;;
5491;SDS011;2768;53.540;10.224;2023-08-08T02:00:52;6.40;;;2.40;;
5491;SDS011;2768;53.540;10.224;2023-08-08T02:06:45;2.97;;;2.00;;
5491;SDS011;2768;53.540;10.224;2023-08-08T02:12:38;5.83;;;2.73;;
5491;SDS011;2768;53.540;10.224;2023-08-08T02:18:33;3.47;;;2.10;;
5491;SDS011;2768;53.540;10.224;2023-08-08T02:24:27;4.43;;;1.60;;
5491;SDS011;2768;53.540;10.224;2023-08-08T02:30:20;2.70;;;1.83;;
5491;SDS011;2768;53.540;10.224;2023-08-08T02:36:15;6.33;;;2.10;;
5491;SDS011;2768;53.540;10.224;2023-08-08T02:42:08;2.63;;;1.50;;
5491;SDS011;2768;53.540;10.224;2023-08-08T02:48:02;2.80;;;1.63;;
5491;SDS011;2768;53.540;10.224;2023-08-08T02:53:57;5.83;;;1.80;;
5491;SDS011;2768;53.540;10.224;2023-08-08T02:59:52;3.70;;;1.20;;
5491;SDS011;2768;53.540;10.224;2023-08-08T03:05:45;2.50;;;1.57;;
5491;SDS011;2768;53.540;10.224;2023-08-08T03:11:42;2.77;;;1.93;;
5491;SDS011;2768;53.540;10.224;2023-08-08T03:17:39;2.70;;;1.57;;
5491;SDS011;2768;53.540;10.224;2023-08-08T03:23:33;3.20;;;1.47;;
5491;SDS011;2768;53.540;10.224;2023-08-08T03:29:28;6.07;;;1.43;;
5491;SDS011;2768;53.540;10.224;2023-08-08T03:35:23;4.80;;;1.80;;
5491;SDS011;2768;53.540;10.224;2023-08-08T03:41:16;3.60;;;1.87;;
5491;SDS011;2768;53.540;10.224;2023-08-08T03:47:11;2.97;;;1.73;;
5491;SDS011;2768;53.540;10.224;2023-08-08T03:53:11;4.20;;;1.77;;
5491;SDS011;2768;53.540;10.224;2023-08-08T03:59:04;5.63;;;1.80;;
5491;SDS011;2768;53.540;10.224;2023-08-08T04:04:59;5.80;;;1.90;;
5491;SDS011;2768;53.540;10.224;2023-08-08T04:10:52;3.17;;;1.70;;
5491;SDS011;2768;53.540;10.224;2023-08-08T04:16:46;2.50;;;1.87;;
5491;SDS011;2768;53.540;10.224;2023-08-08T04:22:40;2.67;;;1.80;;
5491;SDS011;2768;53.540;10.224;2023-08-08T04:28:33;4.43;;;1.97;;
5491;SDS011;2768;53.540;10.224;2023-08-08T04:34:27;3.33;;;1.57;;
5491;SDS011;2768;53.540;10.224;2023-08-08T04:40:21;3.03;;;1.70;;
5491;SDS011;2768;53.540;10.224;2023-08-08T04:46:15;4.40;;;1.73;;
5491;SDS011;2768;53.540;10.224;2023-08-08T04:52:08;4.07;;;1.73;;
5491;SDS011;2768;53.540;10.224;2023-08-08T04:58:03;5.90;;;1.73;;
5491;SDS011;2768;53.540;10.224;2023-08-08T05:03:56;3.93;;;1.53;;
5491;SDS011;2768;53.540;10.224;2023-08-08T05:09:49;2.30;;;1.70;;
5491;SDS011;2768;53.540;10.224;2023-08-08T05:15:44;1.53;;;1.43;;
5491;SDS011;2768;53.540;10.224;2023-08-08T05:21:37;2.70;;;1.90;;
5491;SDS011;2768;53.540;10.224;2023-08-08T05:27:31;2.80;;;1.63;;
5491;SDS011;2768;53.540;10.224;2023-08-08T05:33:26;4.63;;;1.80;;
5491;SDS011;2768;53.540;10.224;2023-08-08T05:39:21;5.10;;;2.30;;
5491;SDS011;2768;53.540;10.224;2023-08-08T05:45:14;1.70;;;1.30;;
5491;SDS011;2768;53.540;10.224;2023-08-08T05:51:09;1.90;;;1.10;;
5491;SDS011;2768;53.540;10.224;2023-08-08T05:57:02;4.77;;;1.47;;
5491;SDS011;2768;53.540;10.224;2023-08-08T06:02:56;2.57;;;1.47;;
5491;SDS011;2768;53.540;10.224;2023-08-08T06:08:51;2.50;;;1.40;;
5491;SDS011;2768;53.540;10.224;2023-08-08T06:14:44;2.73;;;1.93;;
5491;SDS011;2768;53.540;10.224;2023-08-08T06:20:37;1.50;;;1.40;;
5491;SDS011;2768;53.540;10.224;2023-08-08T06:26:32;2.23;;;1.73;;
5491;SDS011;2768;53.540;10.224;2023-08-08T06:32:25;2.60;;;1.60;;
5491;SDS011;2768;53.540;10.224;2023-08-08T06:38:19;2.63;;;1.33;;
5491;SDS011;2768;53.540;10.224;2023-08-08T06:44:13;1.53;;;1.43;;
5491;SDS011;2768;53.540;10.224;2023-08-08T06:50:07;1.73;;;1.60;;
5491;SDS011;2768;53.540;10.224;2023-08-08T06:56:01;1.83;;;1.33;;
5491;SDS011;2768;53.540;10.224;2023-08-08T07:01:56;3.80;;;1.60;;
5491;SDS011;2768;53.540;10.224;2023-08-08T07:07:49;1.63;;;1.53;;
5491;SDS011;2768;53.540;10.224;2023-08-08T07:13:42;2.00;;;1.20;;
5491;SDS011;2768;53.540;10.224;2023-08-08T07:19:37;4.63;;;1.40;;
5491;SDS011;2768;53.540;10.224;2023-08-08T07:25:30;1.63;;;1.20;;
5491;SDS011;2768;53.540;10.224;2023-08-08T07:31:23;2.40;;;1.63;;
5491;SDS011;2768;53.540;10.224;2023-08-08T07:37:17;1.73;;;1.10;;
5491;SDS011;2768;53.540;10.224;2023-08-08T07:43:11;1.07;;;0.97;;
5491;SDS011;2768;53.540;10.224;2023-08-08T07:49:04;3.00;;;1.37;;
5491;SDS011;2768;53.540;10.224;2023-08-08T07:54:59;4.33;;;1.40;;
5491;SDS011;2768;53.540;10.224;2023-08-08T08:00:52;2.50;;;1.20;;
5491;SDS011;2768;53.540;10.224;2023-08-08T08:06:46;3.23;;;1.67;;
5491;SDS011;2768;53.540;10.224;2023-08-08T08:12:40;3.73;;;1.27;;
5491;SDS011;2768;53.540;10.224;2023-08-08T08:18:34;5.40;;;1.57;;
5491;SDS011;2768;53.540;10.224;2023-08-08T08:24:27;3.50;;;1.40;;
5491;SDS011;2768;53.540;10.224;2023-08-08T08:30:22;4.90;;;1.40;;
5491;SDS011;2768;53.540;10.224;2023-08-08T08:36:16;2.53;;;1.30;;
5491;SDS011;2768;53.540;10.224;2023-08-08T08:42:10;2.13;;;1.30;;
5491;SDS011;2768;53.540;10.224;2023-08-08T08:48:09;1.93;;;1.20;;
5491;SDS011;2768;53.540;10.224;2023-08-08T08:54:03;2.90;;;1.37;;
5491;SDS011;2768;53.540;10.224;2023-08-08T08:59:57;4.77;;;1.73;;
5491;SDS011;2768;53.540;10.224;2023-08-08T09:05:52;1.87;;;1.30;;
5491;SDS011;2768;53.540;10.224;2023-08-08T09:11:47;3.07;;;1.30;;
5491;SDS011;2768;53.540;10.224;2023-08-08T09:17:42;1.87;;;1.27;;
5491;SDS011;2768;53.540;10.224;2023-08-08T09:23:41;5.80;;;1.20;;
5491;SDS011;2768;53.540;10.224;2023-08-08T09:29:36;3.63;;;0.83;;
5491;SDS011;2768;53.540;10.224;2023-08-08T09:35:30;2.30;;;1.00;;
5491;SDS011;2768;53.540;10.224;2023-08-08T09:41:25;3.33;;;0.90;;
5491;SDS011;2768;53.540;10.224;2023-08-08T09:47:18;8.63;;;1.17;;
5491;SDS011;2768;53.540;10.224;2023-08-08T09:53:13;2.07;;;1.10;;
5491;SDS011;2768;53.540;10.224;2023-08-08T09:59:09;1.80;;;1.20;;
5491;SDS011;2768;53.540;10.224;2023-08-08T10:05:04;3.33;;;1.33;;
5491;SDS011;2768;53.540;10.224;2023-08-08T10:10:57;2.20;;;1.20;;
5491;SDS011;2768;53.540;10.224;2023-08-08T10:16:53;1.77;;;1.00;;
5491;SDS011;2768;53.540;10.224;2023-08-08T10:22:46;1.30;;;0.90;;
5491;SDS011;2768;53.540;10.224;2023-08-08T10:28:39;1.97;;;1.10;;
5491;SDS011;2768;53.540;10.224;2023-08-08T10:34:37;2.00;;;1.30;;
5491;SDS011;2768;53.540;10.224;2023-08-08T10:40:32;1.73;;;1.20;;
5491;SDS011;2768;53.540;10.224;2023-08-08T10:46:26;2.17;;;1.30;;
5491;SDS011;2768;53.540;10.224;2023-08-08T10:52:22;2.97;;;1.10;;
5491;SDS011;2768;53.540;10.224;2023-08-08T10:58:15;2.30;;;1.00;;
5491;SDS011;2768;53.540;10.224;2023-08-08T11:04:11;1.40;;;1.10;;
5491;SDS011;2768;53.540;10.224;2023-08-08T11:10:06;4.07;;;1.60;;
5491;SDS011;2768;53.540;10.224;2023-08-08T11:16:01;2.20;;;1.20;;
5491;SDS011;2768;53.540;10.224;2023-08-08T11:21:54;1.40;;;1.10;;
5491;SDS011;2768;53.540;10.224;2023-08-08T11:27:50;2.13;;;1.20;;
5491;SDS011;2768;53.540;10.224;2023-08-08T11:33:44;2.57;;;2.13;;
5491;SDS011;2768;53.540;10.224;2023-08-08T11:39:39;1.20;;;1.10;;
5491;SDS011;2768;53.540;10.224;2023-08-08T11:45:34;2.20;;;1.40;;
5491;SDS011;2768;53.540;10.224;2023-08-08T11:51:27;2.47;;;1.00;;
5491;SDS011;2768;53.540;10.224;2023-08-08T11:57:20;2.87;;;0.97;;
5491;SDS011;2768;53.540;10.224;2023-08-08T12:03:15;3.53;;;1.30;;
5491;SDS011;2768;53.540;10.224;2023-08-08T12:09:11;3.00;;;1.40;;
5491;SDS011;2768;53.540;10.224;2023-08-08T12:15:06;2.73;;;1.10;;
5491;SDS011;2768;53.540;10.224;2023-08-08T12:21:06;2.63;;;1.50;;
5491;SDS011;2768;53.540;10.224;2023-08-08T12:27:00;1.53;;;0.90;;
5491;SDS011;2768;53.540;10.224;2023-08-08T12:32:53;1.03;;;0.87;;
5491;SDS011;2768;53.540;10.224;2023-08-08T12:38:48;5.33;;;1.43;;
5491;SDS011;2768;53.540;10.224;2023-08-08T12:44:41;4.23;;;1.23;;
5491;SDS011;2768;53.540;10.224;2023-08-08T12:50:35;5.13;;;1.47;;
5491;SDS011;2768;53.540;10.224;2023-08-08T12:56:30;3.20;;;1.17;;
5491;SDS011;2768;53.540;10.224;2023-08-08T13:02:23;1.93;;;0.90;;
5491;SDS011;2768;53.540;10.224;2023-08-08T13:08:17;2.50;;;1.27;;
5491;SDS011;2768;53.540;10.224;2023-08-08T13:14:12;2.20;;;1.30;;
5491;SDS011;2768;53.540;10.224;2023-08-08T13:20:06;2.77;;;1.60;;
5491;SDS011;2768;53.540;10.224;2023-08-08T13:25:59;2.97;;;1.20;;
5491;SDS011;2768;53.540;10.224;2023-08-08T13:31:56;8.10;;;1.50;;
5491;SDS011;2768;53.540;10.224;2023-08-08T13:37:50;3.77;;;1.43;;
5491;SDS011;2768;53.540;10.224;2023-08-08T13:43:43;5.00;;;1.77;;
5491;SDS011;2768;53.540;10.224;2023-08-08T13:49:38;5.57;;;1.20;;
5491;SDS011;2768;53.540;10.224;2023-08-08T13:55:31;3.50;;;1.87;;
5491;SDS011;2768;53.540;10.224;2023-08-08T14:01:30;4.00;;;1.63;;
5491;SDS011;2768;53.540;10.224;2023-08-08T14:07:25;2.80;;;1.53;;
5491;SDS011;2768;53.540;10.224;2023-08-08T14:13:19;5.87;;;1.83;;
5491;SDS011;2768;53.540;10.224;2023-08-08T14:19:13;4.90;;;1.57;;
5491;SDS011;2768;53.540;10.224;2023-08-08T14:25:09;1.90;;;1.40;;
5491;SDS011;2768;53.540;10.224;2023-08-08T14:31:03;3.50;;;1.60;;
5491;SDS011;2768;53.540;10.224;2023-08-08T14:36:58;7.90;;;1.50;;
5491;SDS011;2768;53.540;10.224;2023-08-08T14:42:52;3.17;;;1.60;;
5491;SDS011;2768;53.540;10.224;2023-08-08T14:48:47;8.30;;;1.77;;
5491;SDS011;2768;53.540;10.224;2023-08-08T14:54:40;5.93;;;2.30;;
5491;SDS011;2768;53.540;10.224;2023-08-08T15:00:34;4.60;;;1.53;;
5491;SDS011;2768;53.540;10.224;2023-08-08T15:06:27;4.53;;;1.60;;
5491;SDS011;2768;53.540;10.224;2023-08-08T15:12:21;3.10;;;1.17;;
5491;SDS011;2768;53.540;10.224;2023-08-08T15:18:15;3.90;;;1.13;;
5491;SDS011;2768;53.540;10.224;2023-08-08T15:24:08;5.77;;;1.70;;
5491;SDS011;2768;53.540;10.224;2023-08-08T15:30:02;5.70;;;1.27;;
5491;SDS011;2768;53.540;10.224;2023-08-08T15:35:57;5.07;;;1.73;;
5491;SDS011;2768;53.540;10.224;2023-08-08T15:41:51;5.30;;;1.33;;
5491;SDS011;2768;53.540;10.224;2023-08-08T15:47:44;7.87;;;1.50;;
5491;SDS011;2768;53.540;10.224;2023-08-08T15:53:39;4.17;;;1.03;;
5491;SDS011;2768;53.540;10.224;2023-08-08T15:59:32;6.23;;;1.63;;
5491;SDS011;2768;53.540;10.224;2023-08-08T16:05:25;3.50;;;1.30;;
5491;SDS011;2768;53.540;10.224;2023-08-08T16:11:21;4.60;;;1.20;;
5491;SDS011;2768;53.540;10.224;2023-08-08T16:17:14;4.57;;;1.60;;
5491;SDS011;2768;53.540;10.224;2023-08-08T16:23:07;4.20;;;1.10;;
5491;SDS011;2768;53.540;10.224;2023-08-08T16:29:02;5.40;;;2.13;;
5491;SDS011;2768;53.540;10.224;2023-08-08T16:34:55;4.63;;;2.03;;
5491;SDS011;2768;53.540;10.224;2023-08-08T16:40:48;3.97;;;1.67;;
5491;SDS011;2768;53.540;10.224;2023-08-08T16:46:43;5.57;;;2.00;;
5491;SDS011;2768;53.540;10.224;2023-08-08T16:52:36;5.07;;;1.80;;
5491;SDS011;2768;53.540;10.224;2023-08-08T16:58:30;5.63;;;2.60;;
5491;SDS011;2768;53.540;10.224;2023-08-08T17:04:24;8.13;;;2.20;;
5491;SDS011;2768;53.540;10.224;2023-08-08T17:10:18;6.90;;;2.30;;
5491;SDS011;2768;53.540;10.224;2023-08-08T17:16:11;7.30;;;2.97;;
5491;SDS011;2768;53.540;10.224;2023-08-08T17:22:06;2.30;;;1.37;;
5491;SDS011;2768;53.540;10.224;2023-08-08T17:27:59;4.30;;;1.90;;
5491;SDS011;2768;53.540;10.224;2023-08-08T17:33:53;3.83;;;1.40;;
5491;SDS011;2768;53.540;10.224;2023-08-08T17:39:50;3.70;;;1.70;;
5491;SDS011;2768;53.540;10.224;2023-08-08T17:45:43;4.57;;;2.77;;
5491;SDS011;2768;53.540;10.224;2023-08-08T17:51:36;6.60;;;1.60;;
5491;SDS011;2768;53.540;10.224;2023-08-08T17:57:31;7.50;;;2.07;;
5491;SDS011;2768;53.540;10.224;2023-08-08T18:03:24;5.60;;;1.47;;
5491;SDS011;2768;53.540;10.224;2023-08-08T18:09:17;5.47;;;1.77;;
5491;SDS011;2768;53.540;10.224;2023-08-08T18:15:12;4.13;;;1.60;;
5491;SDS011;2768;53.540;10.224;2023-08-08T18:21:05;3.20;;;1.30;;
5491;SDS011;2768;53.540;10.224;2023-08-08T18:26:58;2.67;;;1.30;;
5491;SDS011;2768;53.540;10.224;2023-08-08T18:32:53;7.20;;;1.73;;
5491;SDS011;2768;53.540;10.224;2023-08-08T18:38:46;6.47;;;1.90;;
5491;SDS011;2768;53.540;10.224;2023-08-08T18:44:39;4.77;;;1.70;;
5491;SDS011;2768;53.540;10.224;2023-08-08T18:50:34;3.13;;;1.43;;
5491;SDS011;2768;53.540;10.224;2023-08-08T18:56:28;7.57;;;1.60;;
5491;SDS011;2768;53.540;10.224;2023-08-08T19:02:21;3.07;;;1.50;;
5491;SDS011;2768;53.540;10.224;2023-08-08T19:08:16;3.50;;;1.43;;
5491;SDS011;2768;53.540;10.224;2023-08-08T19:14:09;4.70;;;1.70;;
5491;SDS011;2768;53.540;10.224;2023-08-08T19:20:03;6.23;;;1.40;;
5491;SDS011;2768;53.540;10.224;2023-08-08T19:25:59;3.23;;;1.30;;
5491;SDS011;2768;53.540;10.224;2023-08-08T19:31:52;6.67;;;1.20;;
5491;SDS011;2768;53.540;10.224;2023-08-08T19:37:46;5.50;;;1.43;;
5491;SDS011;2768;53.540;10.224;2023-08-08T19:43:40;3.40;;;1.53;;
5491;SDS011;2768;53.540;10.224;2023-08-08T19:49:34;5.17;;;1.80;;
5491;SDS011;2768;53.540;10.224;2023-08-08T19:55:27;7.53;;;1.90;;
5491;SDS011;2768;53.540;10.224;2023-08-08T20:01:22;6.83;;;1.77;;
5491;SDS011;2768;53.540;10.224;2023-08-08T20:07:16;4.20;;;1.93;;
5491;SDS011;2768;53.540;10.224;2023-08-08T20:13:09;5.30;;;1.67;;
5491;SDS011;2768;53.540;10.224;2023-08-08T20:19:06;4.57;;;2.00;;
5491;SDS011;2768;53.540;10.224;2023-08-08T20:24:59;6.53;;;2.37;;
5491;SDS011;2768;53.540;10.224;2023-08-08T20:30:53;4.47;;;1.60;;
5491;SDS011;2768;53.540;10.224;2023-08-08T20:36:48;4.50;;;1.60;;
5491;SDS011;2768;53.540;10.224;2023-08-08T20:42:41;7.40;;;2.60;;
5491;SDS011;2768;53.540;10.224;2023-08-08T20:48:35;8.93;;;1.80;;
5491;SDS011;2768;53.540;10.224;2023-08-08T20:54:29;5.53;;;1.67;;
5491;SDS011;2768;53.540;10.224;2023-08-08T21:00:23;7.23;;;2.10;;
5491;SDS011;2768;53.540;10.224;2023-08-08T21:06:16;6.50;;;1.83;;
5491;SDS011;2768;53.540;10.224;2023-08-08T21:12:10;5.07;;;1.60;;
5491;SDS011;2768;53.540;10.224;2023-08-08T21:18:06;4.10;;;1.90;;
5491;SDS011;2768;53.540;10.224;2023-08-08T21:23:59;7.23;;;2.00;;
5491;SDS011;2768;53.540;10.224;2023-08-08T21:29:54;3.80;;;1.60;;
5491;SDS011;2768;53.540;10.224;2023-08-08T21:35:47;5.57;;;1.70;;
5491;SDS011;2768;53.540;10.224;2023-08-08T21:41:40;3.23;;;1.70;;
5491;SDS011;2768;53.540;10.224;2023-08-08T21:47:35;4.97;;;2.33;;
5491;SDS011;2768;53.540;10.224;2023-08-08T21:53:28;9.63;;;1.97;;
5491;SDS011;2768;53.540;10.224;2023-08-08T21:59:21;4.80;;;2.50;;
5491;SDS011;2768;53.540;10.224;2023-08-08T22:05:16;7.63;;;2.17;;
5491;SDS011;2768;53.540;10.224;2023-08-08T22:11:09;5.03;;;2.00;;
5491;SDS011;2768;53.540;10.224;2023-08-08T22:17:03;4.60;;;1.80;;
5491;SDS011;2768;53.540;10.224;2023-08-08T22:22:57;9.30;;;2.03;;
5491;SDS011;2768;53.540;10.224;2023-08-08T22:29:08;6.17;;;1.40;;
5491;SDS011;2768;53.540;10.224;2023-08-08T22:35:01;3.70;;;1.40;;
5491;SDS011;2768;53.540;10.224;2023-08-08T22:40:56;3.90;;;1.57;;
5491;SDS011;2768;53.540;10.224;2023-08-08T22:46:49;3.87;;;1.70;;
5491;SDS011;2768;53.540;10.224;2023-08-08T22:52:43;5.37;;;1.77;;
5491;SDS011;2768;53.540;10.224;2023-08-08T22:58:37;6.73;;;1.60;;
5491;SDS011;2768;53.540;10.224;2023-08-08T23:04:30;6.00;;;2.17;;
5491;SDS011;2768;53.540;10.224;2023-08-08T23:10:24;5.30;;;1.73;;
5491;SDS011;2768;53.540;10.224;2023-08-08T23:16:18;5.03;;;1.30;;
5491;SDS011;2768;53.540;10.224;2023-08-08T23:22:12;4.50;;;2.00;;
5491;SDS011;2768;53.540;10.224;2023-08-08T23:28:05;3.73;;;1.40;;
5491;SDS011;2768;53.540;10.224;2023-08-08T23:33:59;3.53;;;1.23;;
5491;SDS011;2768;53.540;10.224;2023-08-08T23:39:53;4.43;;;1.60;;
5491;SDS011;2768;53.540;10.224;2023-08-08T23:45:46;4.90;;;1.90;;
5491;SDS011;2768;53.540;10.224;2023-08-08T23:51:41;4.40;;;1.37;;
5491;SDS011;2768;53.540;10.224;2023-08-08T23:57:36;5.50;;;1.60;;
